Anchorage, AK

12:16 PM AKST on March 05, 2015 (GMT -0900)
Anchorage | Change Station
CLOSE
Current Station
Airport
Location: Anchorage,
Elevation: 144 ft
Nearby Weather Stations

Elev 144 ft 61.17 °N, 150.03 °W | Updated 23 minutes ago

Mostly Cloudy
Mostly Cloudy
39 °F
Feels Like 39 °F
N
0
Wind Variable Wind from North

Today
High -- | Low -- °F
--% Chance of Precip.
Yesterday
High -- | Low -- °F
Precip. -- in
7:48 AM 6:35 PM
Full, 100% visible
Pressure 29.86 in
Visibility 10.0 miles
Clouds Few 300 ft
Scattered Clouds 4800 ft
Mostly Cloudy 7000 ft
Dew Point 34 °F
Humidity 82%
Rainfall 0.00 in
Snow Depth Not available.
UV 1 out of 12
Pollen Not available.
Air Quality Not available.
Flu Activity Not available.
METAR PANC 052053Z 00000KT 10SM FEW003 SCT048 BKN070 04/01 A2985 RMK AO2 SLP111 T00390011 51011 $

More Conditions Fewer Conditions

Pressure 29.86 in
Visibility 10.0 miles
Clouds Few 300 ft
Scattered Clouds 4800 ft
Mostly Cloudy 7000 ft
Dew Point 34 °F
Humidity 82%
Rainfall 0.00 in
Snow Depth Not available.
UV 1 out of 12
Pollen Not available.
Air Quality Not available.
Flu Activity Not available.
METAR PANC 052053Z 00000KT 10SM FEW003 SCT048 BKN070 04/01 A2985 RMK AO2 SLP111 T00390011 51011 $

More Conditions Fewer Conditions

10-Day Weather Forecast

Almanac

Astronomy

Mar. 05, 2015 Rise Set
Actual Time
Civil Twilight
Nautical Twilight
Astronomical Twilight
Moon
Length of Visible Light
Length of Day
Tomorrow will be .
, % of the Moon is Illuminated

Today's Extremes

State Highs State Lows

Community

WunderPhotos

Upload Photos

1,802,988 photos uploaded!

WunderBlogs® & News

Nearby

Air Quality

  Air Quality AQ Index Pollutant
Not available.

Snow Depth

Station Depth Elevation

Earthquake Activity

City Distance Mag. Time & Date
Minimum magnitude displayed is 2.5.

Coastal Water Temperatures

Place Temperature

Nearby Weather Stations